sensor_id;sensor_type;location;lat;lon;timestamp;temperature;humidity
2973;DHT22;1496;51.404;7.232;2023-07-13T00:01:54;16.90;99.90
2973;DHT22;1496;51.404;7.232;2023-07-13T00:04:24;17.00;99.90
2973;DHT22;1496;51.404;7.232;2023-07-13T00:06:51;16.90;99.90
2973;DHT22;1496;51.404;7.232;2023-07-13T00:09:19;16.80;99.90
2973;DHT22;1496;51.404;7.232;2023-07-13T00:11:49;16.80;99.90
2973;DHT22;1496;51.404;7.232;2023-07-13T00:14:18;16.90;99.90
2973;DHT22;1496;51.404;7.232;2023-07-13T00:16:47;16.90;99.90
2973;DHT22;1496;51.404;7.232;2023-07-13T00:19:15;16.80;99.90
2973;DHT22;1496;51.404;7.232;2023-07-13T00:21:42;16.70;99.90
2973;DHT22;1496;51.404;7.232;2023-07-13T00:24:15;16.80;99.90
2973;DHT22;1496;51.404;7.232;2023-07-13T00:26:49;16.80;99.90
2973;DHT22;1496;51.404;7.232;2023-07-13T00:29:15;16.80;99.90
2973;DHT22;1496;51.404;7.232;2023-07-13T00:31:43;16.70;99.90
2973;DHT22;1496;51.404;7.232;2023-07-13T00:34:11;16.70;99.90
2973;DHT22;1496;51.404;7.232;2023-07-13T00:36:38;16.70;99.90
2973;DHT22;1496;51.404;7.232;2023-07-13T00:39:04;16.60;99.90
2973;DHT22;1496;51.404;7.232;2023-07-13T00:41:31;16.60;99.90
2973;DHT22;1496;51.404;7.232;2023-07-13T00:43:59;16.70;99.90
2973;DHT22;1496;51.404;7.232;2023-07-13T00:46:30;16.60;99.90
2973;DHT22;1496;51.404;7.232;2023-07-13T00:49:01;16.50;99.90
2973;DHT22;1496;51.404;7.232;2023-07-13T00:51:34;16.50;99.90
2973;DHT22;1496;51.404;7.232;2023-07-13T00:54:06;16.50;99.90
2973;DHT22;1496;51.404;7.232;2023-07-13T00:56:34;16.40;99.90
2973;DHT22;1496;51.404;7.232;2023-07-13T00:59:04;16.40;99.90
2973;DHT22;1496;51.404;7.232;2023-07-13T01:01:32;16.50;99.90
2973;DHT22;1496;51.404;7.232;2023-07-13T01:04:01;16.40;99.90
2973;DHT22;1496;51.404;7.232;2023-07-13T01:06:27;16.50;99.90
2973;DHT22;1496;51.404;7.232;2023-07-13T01:08:56;16.40;99.90
2973;DHT22;1496;51.404;7.232;2023-07-13T01:11:27;16.50;99.90
2973;DHT22;1496;51.404;7.232;2023-07-13T01:13:54;16.40;99.90
2973;DHT22;1496;51.404;7.232;2023-07-13T01:16:29;16.40;99.90
2973;DHT22;1496;51.404;7.232;2023-07-13T01:18:57;16.40;99.90
2973;DHT22;1496;51.404;7.232;2023-07-13T01:21:25;16.30;99.90
2973;DHT22;1496;51.404;7.232;2023-07-13T01:23:52;16.40;99.90
2973;DHT22;1496;51.404;7.232;2023-07-13T01:26:19;16.40;99.90
2973;DHT22;1496;51.404;7.232;2023-07-13T01:28:47;16.40;99.90
2973;DHT22;1496;51.404;7.232;2023-07-13T01:31:13;16.40;99.90
2973;DHT22;1496;51.404;7.232;2023-07-13T01:33:41;16.30;99.90
2973;DHT22;1496;51.404;7.232;2023-07-13T01:36:08;16.30;99.90
2973;DHT22;1496;51.404;7.232;2023-07-13T01:38:37;16.20;99.90
2973;DHT22;1496;51.404;7.232;2023-07-13T01:41:03;16.30;99.90
2973;DHT22;1496;51.404;7.232;2023-07-13T01:43:30;16.30;99.90
2973;DHT22;1496;51.404;7.232;2023-07-13T01:45:57;16.00;99.90
2973;DHT22;1496;51.404;7.232;2023-07-13T01:48:24;16.10;99.90
2973;DHT22;1496;51.404;7.232;2023-07-13T01:50:52;16.00;99.90
2973;DHT22;1496;51.404;7.232;2023-07-13T01:53:19;16.00;99.90
2973;DHT22;1496;51.404;7.232;2023-07-13T01:55:46;15.90;99.90
2973;DHT22;1496;51.404;7.232;2023-07-13T01:58:14;15.90;99.90
2973;DHT22;1496;51.404;7.232;2023-07-13T02:00:40;15.90;99.90
2973;DHT22;1496;51.404;7.232;2023-07-13T02:03:06;15.90;99.90
2973;DHT22;1496;51.404;7.232;2023-07-13T02:05:32;15.80;99.90
2973;DHT22;1496;51.404;7.232;2023-07-13T02:07:59;15.80;99.90
2973;DHT22;1496;51.404;7.232;2023-07-13T02:10:25;15.80;99.90
2973;DHT22;1496;51.404;7.232;2023-07-13T02:12:52;15.80;99.90
2973;DHT22;1496;51.404;7.232;2023-07-13T02:15:18;15.70;99.90
2973;DHT22;1496;51.404;7.232;2023-07-13T02:17:44;15.70;99.90
2973;DHT22;1496;51.404;7.232;2023-07-13T02:20:11;15.70;99.90
2973;DHT22;1496;51.404;7.232;2023-07-13T02:22:38;15.70;99.90
2973;DHT22;1496;51.404;7.232;2023-07-13T02:25:06;15.80;99.90
2973;DHT22;1496;51.404;7.232;2023-07-13T02:27:33;15.70;99.90
2973;DHT22;1496;51.404;7.232;2023-07-13T02:30:00;15.70;99.90
2973;DHT22;1496;51.404;7.232;2023-07-13T02:32:26;15.80;99.90
2973;DHT22;1496;51.404;7.232;2023-07-13T02:34:54;15.70;99.90
2973;DHT22;1496;51.404;7.232;2023-07-13T02:37:20;15.70;99.90
2973;DHT22;1496;51.404;7.232;2023-07-13T02:39:48;15.60;99.90
2973;DHT22;1496;51.404;7.232;2023-07-13T02:42:16;15.60;99.90
2973;DHT22;1496;51.404;7.232;2023-07-13T02:44:44;15.60;99.90
2973;DHT22;1496;51.404;7.232;2023-07-13T02:47:11;15.60;99.90
2973;DHT22;1496;51.404;7.232;2023-07-13T02:49:39;15.50;99.90
2973;DHT22;1496;51.404;7.232;2023-07-13T02:52:06;15.40;99.90
2973;DHT22;1496;51.404;7.232;2023-07-13T02:54:33;15.40;99.90
2973;DHT22;1496;51.404;7.232;2023-07-13T02:57:01;15.40;99.90
2973;DHT22;1496;51.404;7.232;2023-07-13T02:59:28;15.30;99.90
2973;DHT22;1496;51.404;7.232;2023-07-13T03:01:56;15.20;99.90
2973;DHT22;1496;51.404;7.232;2023-07-13T03:04:22;15.30;99.90
2973;DHT22;1496;51.404;7.232;2023-07-13T03:06:50;15.30;99.90
2973;DHT22;1496;51.404;7.232;2023-07-13T03:09:18;15.20;99.90
2973;DHT22;1496;51.404;7.232;2023-07-13T03:11:54;15.30;99.90
2973;DHT22;1496;51.404;7.232;2023-07-13T03:14:26;15.30;99.90
2973;DHT22;1496;51.404;7.232;2023-07-13T03:16:53;15.30;99.90
2973;DHT22;1496;51.404;7.232;2023-07-13T03:19:22;15.20;99.90
2973;DHT22;1496;51.404;7.232;2023-07-13T03:21:50;15.10;99.90
2973;DHT22;1496;51.404;7.232;2023-07-13T03:24:18;15.10;99.90
2973;DHT22;1496;51.404;7.232;2023-07-13T03:26:47;15.10;99.90
2973;DHT22;1496;51.404;7.232;2023-07-13T03:29:14;15.20;99.90
2973;DHT22;1496;51.404;7.232;2023-07-13T03:31:42;15.20;99.90
2973;DHT22;1496;51.404;7.232;2023-07-13T03:34:08;15.10;99.90
2973;DHT22;1496;51.404;7.232;2023-07-13T03:36:37;15.10;99.90
2973;DHT22;1496;51.404;7.232;2023-07-13T03:39:09;15.10;99.90
2973;DHT22;1496;51.404;7.232;2023-07-13T03:41:43;15.10;99.90
2973;DHT22;1496;51.404;7.232;2023-07-13T03:44:12;15.20;99.90
2973;DHT22;1496;51.404;7.232;2023-07-13T03:46:39;15.10;99.90
2973;DHT22;1496;51.404;7.232;2023-07-13T03:49:06;15.10;99.90
2973;DHT22;1496;51.404;7.232;2023-07-13T03:51:33;15.20;99.90
2973;DHT22;1496;51.404;7.232;2023-07-13T03:54:00;15.20;99.90
2973;DHT22;1496;51.404;7.232;2023-07-13T03:56:28;15.10;99.90
2973;DHT22;1496;51.404;7.232;2023-07-13T03:58:57;15.10;99.90
2973;DHT22;1496;51.404;7.232;2023-07-13T04:01:24;15.20;99.90
2973;DHT22;1496;51.404;7.232;2023-07-13T04:03:51;15.40;99.90
2973;DHT22;1496;51.404;7.232;2023-07-13T04:06:26;15.50;99.90
2973;DHT22;1496;51.404;7.232;2023-07-13T04:08:55;15.60;99.90
2973;DHT22;1496;51.404;7.232;2023-07-13T04:11:25;15.70;99.90
2973;DHT22;1496;51.404;7.232;2023-07-13T04:13:54;15.60;99.90
2973;DHT22;1496;51.404;7.232;2023-07-13T04:16:21;15.60;99.90
2973;DHT22;1496;51.404;7.232;2023-07-13T04:18:48;15.60;99.90
2973;DHT22;1496;51.404;7.232;2023-07-13T04:21:15;15.50;99.90
2973;DHT22;1496;51.404;7.232;2023-07-13T04:23:43;15.60;99.90
2973;DHT22;1496;51.404;7.232;2023-07-13T04:26:10;15.60;99.90
2973;DHT22;1496;51.404;7.232;2023-07-13T04:28:37;15.60;99.90
2973;DHT22;1496;51.404;7.232;2023-07-13T04:31:04;15.70;99.90
2973;DHT22;1496;51.404;7.232;2023-07-13T04:33:30;15.70;99.90
2973;DHT22;1496;51.404;7.232;2023-07-13T04:35:58;15.70;99.90
2973;DHT22;1496;51.404;7.232;2023-07-13T04:38:28;15.60;99.90
2973;DHT22;1496;51.404;7.232;2023-07-13T04:40:58;15.70;99.90
2973;DHT22;1496;51.404;7.232;2023-07-13T04:43:27;15.70;99.90
2973;DHT22;1496;51.404;7.232;2023-07-13T04:45:53;15.70;99.90
2973;DHT22;1496;51.404;7.232;2023-07-13T04:48:21;15.70;99.90
2973;DHT22;1496;51.404;7.232;2023-07-13T04:50:47;15.60;99.90
2973;DHT22;1496;51.404;7.232;2023-07-13T04:53:20;15.50;99.90
2973;DHT22;1496;51.404;7.232;2023-07-13T04:55:46;15.50;99.90
2973;DHT22;1496;51.404;7.232;2023-07-13T04:58:13;15.50;99.90
2973;DHT22;1496;51.404;7.232;2023-07-13T05:00:40;15.60;99.90
2973;DHT22;1496;51.404;7.232;2023-07-13T05:03:07;15.60;99.90
2973;DHT22;1496;51.404;7.232;2023-07-13T05:05:33;15.60;99.90
2973;DHT22;1496;51.404;7.232;2023-07-13T05:07:59;15.70;99.90
2973;DHT22;1496;51.404;7.232;2023-07-13T05:10:27;15.70;99.90
2973;DHT22;1496;51.404;7.232;2023-07-13T05:12:54;15.80;99.90
2973;DHT22;1496;51.404;7.232;2023-07-13T05:15:22;15.90;99.90
2973;DHT22;1496;51.404;7.232;2023-07-13T05:17:49;16.00;99.90
2973;DHT22;1496;51.404;7.232;2023-07-13T05:20:16;16.00;99.90
2973;DHT22;1496;51.404;7.232;2023-07-13T05:22:44;16.00;99.90
2973;DHT22;1496;51.404;7.232;2023-07-13T05:25:12;16.10;99.90
2973;DHT22;1496;51.404;7.232;2023-07-13T05:27:39;16.30;99.90
2973;DHT22;1496;51.404;7.232;2023-07-13T05:30:07;16.30;99.90
2973;DHT22;1496;51.404;7.232;2023-07-13T05:32:36;16.50;99.90
2973;DHT22;1496;51.404;7.232;2023-07-13T05:35:04;16.50;99.90
2973;DHT22;1496;51.404;7.232;2023-07-13T05:37:30;16.50;99.90
2973;DHT22;1496;51.404;7.232;2023-07-13T05:39:57;16.50;99.90
2973;DHT22;1496;51.404;7.232;2023-07-13T05:42:23;16.60;99.90
2973;DHT22;1496;51.404;7.232;2023-07-13T05:44:50;16.60;99.90
2973;DHT22;1496;51.404;7.232;2023-07-13T05:47:17;16.60;99.90
2973;DHT22;1496;51.404;7.232;2023-07-13T05:49:44;16.50;99.90
2973;DHT22;1496;51.404;7.232;2023-07-13T05:52:10;16.60;99.90
2973;DHT22;1496;51.404;7.232;2023-07-13T05:54:37;16.70;99.90
2973;DHT22;1496;51.404;7.232;2023-07-13T05:57:04;16.70;99.90
2973;DHT22;1496;51.404;7.232;2023-07-13T05:59:31;16.70;99.90
2973;DHT22;1496;51.404;7.232;2023-07-13T06:01:58;16.80;99.90
2973;DHT22;1496;51.404;7.232;2023-07-13T06:04:24;16.80;99.90
2973;DHT22;1496;51.404;7.232;2023-07-13T06:06:51;16.80;99.90
2973;DHT22;1496;51.404;7.232;2023-07-13T06:09:18;16.80;99.90
2973;DHT22;1496;51.404;7.232;2023-07-13T06:11:45;16.90;99.90
2973;DHT22;1496;51.404;7.232;2023-07-13T06:14:11;16.90;99.90
2973;DHT22;1496;51.404;7.232;2023-07-13T06:16:39;16.80;99.90
2973;DHT22;1496;51.404;7.232;2023-07-13T06:19:05;16.80;99.90
2973;DHT22;1496;51.404;7.232;2023-07-13T06:21:32;16.90;99.90
2973;DHT22;1496;51.404;7.232;2023-07-13T06:23:59;16.70;99.90
2973;DHT22;1496;51.404;7.232;2023-07-13T06:26:26;16.70;99.90
2973;DHT22;1496;51.404;7.232;2023-07-13T06:28:53;16.60;99.90
2973;DHT22;1496;51.404;7.232;2023-07-13T06:31:20;16.80;99.90
2973;DHT22;1496;51.404;7.232;2023-07-13T06:33:46;16.90;99.90
2973;DHT22;1496;51.404;7.232;2023-07-13T06:36:13;17.10;99.90
2973;DHT22;1496;51.404;7.232;2023-07-13T06:38:41;17.20;99.90
2973;DHT22;1496;51.404;7.232;2023-07-13T06:41:08;17.40;99.90
2973;DHT22;1496;51.404;7.232;2023-07-13T06:43:34;17.40;99.90
2973;DHT22;1496;51.404;7.232;2023-07-13T06:46:00;17.50;99.90
2973;DHT22;1496;51.404;7.232;2023-07-13T06:48:28;17.60;99.90
2973;DHT22;1496;51.404;7.232;2023-07-13T06:50:56;17.70;99.90
2973;DHT22;1496;51.404;7.232;2023-07-13T06:53:23;17.80;99.90
2973;DHT22;1496;51.404;7.232;2023-07-13T06:55:51;17.80;99.90
2973;DHT22;1496;51.404;7.232;2023-07-13T06:58:18;18.00;99.90
2973;DHT22;1496;51.404;7.232;2023-07-13T07:00:45;18.00;99.90
2973;DHT22;1496;51.404;7.232;2023-07-13T07:03:11;18.10;99.90
2973;DHT22;1496;51.404;7.232;2023-07-13T07:05:38;18.00;99.90
2973;DHT22;1496;51.404;7.232;2023-07-13T07:08:05;18.10;99.90
2973;DHT22;1496;51.404;7.232;2023-07-13T07:10:33;18.20;99.90
2973;DHT22;1496;51.404;7.232;2023-07-13T07:12:59;18.30;99.90
2973;DHT22;1496;51.404;7.232;2023-07-13T07:15:26;18.40;99.90
2973;DHT22;1496;51.404;7.232;2023-07-13T07:17:53;18.40;99.90
2973;DHT22;1496;51.404;7.232;2023-07-13T07:20:20;18.70;99.90
2973;DHT22;1496;51.404;7.232;2023-07-13T07:22:47;18.70;99.90
2973;DHT22;1496;51.404;7.232;2023-07-13T07:25:15;18.60;99.90
2973;DHT22;1496;51.404;7.232;2023-07-13T07:27:42;18.70;99.90
2973;DHT22;1496;51.404;7.232;2023-07-13T07:30:10;18.80;99.90
2973;DHT22;1496;51.404;7.232;2023-07-13T07:32:38;18.70;99.90
2973;DHT22;1496;51.404;7.232;2023-07-13T07:35:05;18.30;99.90
2973;DHT22;1496;51.404;7.232;2023-07-13T07:37:31;18.20;99.90
2973;DHT22;1496;51.404;7.232;2023-07-13T07:39:57;18.20;99.90
2973;DHT22;1496;51.404;7.232;2023-07-13T07:42:25;18.30;99.90
2973;DHT22;1496;51.404;7.232;2023-07-13T07:44:51;18.30;99.90
2973;DHT22;1496;51.404;7.232;2023-07-13T07:47:18;18.30;99.90
2973;DHT22;1496;51.404;7.232;2023-07-13T07:49:45;18.30;99.90
2973;DHT22;1496;51.404;7.232;2023-07-13T07:52:14;18.40;99.90
2973;DHT22;1496;51.404;7.232;2023-07-13T07:54:41;18.50;99.90
2973;DHT22;1496;51.404;7.232;2023-07-13T07:57:07;18.60;99.90
2973;DHT22;1496;51.404;7.232;2023-07-13T07:59:34;18.70;99.90
2973;DHT22;1496;51.404;7.232;2023-07-13T08:02:04;18.60;99.90
2973;DHT22;1496;51.404;7.232;2023-07-13T08:04:30;18.70;99.90
2973;DHT22;1496;51.404;7.232;2023-07-13T08:06:57;18.60;99.90
2973;DHT22;1496;51.404;7.232;2023-07-13T08:09:23;18.70;99.90
2973;DHT22;1496;51.404;7.232;2023-07-13T08:11:51;18.90;99.90
2973;DHT22;1496;51.404;7.232;2023-07-13T08:14:18;18.80;99.90
2973;DHT22;1496;51.404;7.232;2023-07-13T08:16:45;18.80;99.90
2973;DHT22;1496;51.404;7.232;2023-07-13T08:19:12;18.80;99.90
2973;DHT22;1496;51.404;7.232;2023-07-13T08:21:38;18.70;99.90
2973;DHT22;1496;51.404;7.232;2023-07-13T08:24:05;18.90;99.90
2973;DHT22;1496;51.404;7.232;2023-07-13T08:26:32;19.10;99.90
2973;DHT22;1496;51.404;7.232;2023-07-13T08:28:59;19.00;99.90
2973;DHT22;1496;51.404;7.232;2023-07-13T08:31:26;18.90;99.90
2973;DHT22;1496;51.404;7.232;2023-07-13T08:33:52;19.30;99.90
2973;DHT22;1496;51.404;7.232;2023-07-13T08:36:19;19.60;99.90
2973;DHT22;1496;51.404;7.232;2023-07-13T08:38:46;19.50;99.90
2973;DHT22;1496;51.404;7.232;2023-07-13T08:41:17;19.80;99.90
2973;DHT22;1496;51.404;7.232;2023-07-13T08:43:49;19.60;99.90
2973;DHT22;1496;51.404;7.232;2023-07-13T08:46:28;19.30;99.90
2973;DHT22;1496;51.404;7.232;2023-07-13T08:49:03;19.50;99.90
2973;DHT22;1496;51.404;7.232;2023-07-13T08:54:30;20.00;99.90
2973;DHT22;1496;51.404;7.232;2023-07-13T08:57:01;19.80;99.90
2973;DHT22;1496;51.404;7.232;2023-07-13T08:59:31;19.30;99.90
2973;DHT22;1496;51.404;7.232;2023-07-13T09:15:41;19.20;99.90
2973;DHT22;1496;51.404;7.232;2023-07-13T09:20:46;19.60;99.90
2973;DHT22;1496;51.404;7.232;2023-07-13T09:23:17;20.00;99.90
2973;DHT22;1496;51.404;7.232;2023-07-13T09:25:53;19.90;99.90
2973;DHT22;1496;51.404;7.232;2023-07-13T09:28:33;19.80;99.90
2973;DHT22;1496;51.404;7.232;2023-07-13T09:31:16;19.70;99.90
2973;DHT22;1496;51.404;7.232;2023-07-13T09:33:44;20.00;99.90
2973;DHT22;1496;51.404;7.232;2023-07-13T09:38:45;20.40;99.90
2973;DHT22;1496;51.404;7.232;2023-07-13T09:41:31;20.50;99.90
2973;DHT22;1496;51.404;7.232;2023-07-13T09:44:16;20.30;99.90
2973;DHT22;1496;51.404;7.232;2023-07-13T09:46:54;20.70;99.90
2973;DHT22;1496;51.404;7.232;2023-07-13T09:49:30;21.00;99.90
2973;DHT22;1496;51.404;7.232;2023-07-13T09:52:03;21.00;99.90
2973;DHT22;1496;51.404;7.232;2023-07-13T09:54:34;20.80;99.90
2973;DHT22;1496;51.404;7.232;2023-07-13T09:57:02;20.60;99.90
2973;DHT22;1496;51.404;7.232;2023-07-13T09:59:33;21.00;99.90
2973;DHT22;1496;51.404;7.232;2023-07-13T10:02:01;20.50;99.90
2973;DHT22;1496;51.404;7.232;2023-07-13T10:04:33;20.30;99.90
2973;DHT22;1496;51.404;7.232;2023-07-13T10:07:08;20.00;99.90
2973;DHT22;1496;51.404;7.232;2023-07-13T10:09:36;19.80;99.90
2973;DHT22;1496;51.404;7.232;2023-07-13T10:12:02;19.70;99.90
2973;DHT22;1496;51.404;7.232;2023-07-13T10:14:30;19.90;99.90
2973;DHT22;1496;51.404;7.232;2023-07-13T10:17:00;19.90;99.90
2973;DHT22;1496;51.404;7.232;2023-07-13T10:19:32;19.70;99.90
2973;DHT22;1496;51.404;7.232;2023-07-13T10:22:12;20.00;99.90
2973;DHT22;1496;51.404;7.232;2023-07-13T10:24:39;20.40;99.90
2973;DHT22;1496;51.404;7.232;2023-07-13T10:27:17;20.30;99.90
2973;DHT22;1496;51.404;7.232;2023-07-13T10:32:13;20.00;99.90
2973;DHT22;1496;51.404;7.232;2023-07-13T10:34:45;19.90;99.90
2973;DHT22;1496;51.404;7.232;2023-07-13T10:37:21;20.10;99.90
2973;DHT22;1496;51.404;7.232;2023-07-13T10:39:48;20.60;99.90
2973;DHT22;1496;51.404;7.232;2023-07-13T10:42:27;20.60;99.90
2973;DHT22;1496;51.404;7.232;2023-07-13T10:44:54;20.40;99.90
2973;DHT22;1496;51.404;7.232;2023-07-13T10:47:22;20.60;99.90
2973;DHT22;1496;51.404;7.232;2023-07-13T10:49:54;20.70;99.90
2973;DHT22;1496;51.404;7.232;2023-07-13T10:52:42;20.60;99.90
2973;DHT22;1496;51.404;7.232;2023-07-13T10:56:16;20.50;99.90
2973;DHT22;1496;51.404;7.232;2023-07-13T10:58:23;20.50;99.90
2973;DHT22;1496;51.404;7.232;2023-07-13T11:04:11;20.40;99.90
2973;DHT22;1496;51.404;7.232;2023-07-13T11:06:40;20.10;99.90
2973;DHT22;1496;51.404;7.232;2023-07-13T11:11:51;20.20;99.90
2973;DHT22;1496;51.404;7.232;2023-07-13T11:14:37;20.30;99.90
2973;DHT22;1496;51.404;7.232;2023-07-13T11:20:20;20.60;99.90
2973;DHT22;1496;51.404;7.232;2023-07-13T11:23:07;21.20;99.90
2973;DHT22;1496;51.404;7.232;2023-07-13T11:25:36;21.20;99.90
2973;DHT22;1496;51.404;7.232;2023-07-13T11:28:16;21.20;99.90
2973;DHT22;1496;51.404;7.232;2023-07-13T11:33:27;21.30;99.90
2973;DHT22;1496;51.404;7.232;2023-07-13T11:36:00;21.00;99.90
2973;DHT22;1496;51.404;7.232;2023-07-13T11:41:44;21.50;99.90
2973;DHT22;1496;51.404;7.232;2023-07-13T11:44:20;21.20;99.90
2973;DHT22;1496;51.404;7.232;2023-07-13T11:46:56;21.20;99.90
2973;DHT22;1496;51.404;7.232;2023-07-13T11:49:28;21.60;99.90
2973;DHT22;1496;51.404;7.232;2023-07-13T11:51:56;22.00;99.90
2973;DHT22;1496;51.404;7.232;2023-07-13T11:54:32;22.20;99.90
2973;DHT22;1496;51.404;7.232;2023-07-13T11:57:10;22.20;99.90
2973;DHT22;1496;51.404;7.232;2023-07-13T11:59:40;22.30;99.90
2973;DHT22;1496;51.404;7.232;2023-07-13T12:02:26;22.00;99.90
2973;DHT22;1496;51.404;7.232;2023-07-13T12:04:56;21.60;99.90
2973;DHT22;1496;51.404;7.232;2023-07-13T12:07:23;21.70;99.90
2973;DHT22;1496;51.404;7.232;2023-07-13T12:09:50;22.10;99.90
2973;DHT22;1496;51.404;7.232;2023-07-13T12:12:27;22.70;99.90
2973;DHT22;1496;51.404;7.232;2023-07-13T12:14:55;22.80;99.90
2973;DHT22;1496;51.404;7.232;2023-07-13T12:17:24;22.50;99.90
2973;DHT22;1496;51.404;7.232;2023-07-13T12:19:51;22.20;99.90
2973;DHT22;1496;51.404;7.232;2023-07-13T12:22:20;22.00;99.90
2973;DHT22;1496;51.404;7.232;2023-07-13T12:24:49;22.20;99.90
2973;DHT22;1496;51.404;7.232;2023-07-13T12:27:22;22.40;99.90
2973;DHT22;1496;51.404;7.232;2023-07-13T12:29:59;22.50;99.90
2973;DHT22;1496;51.404;7.232;2023-07-13T12:32:27;22.70;99.90
2973;DHT22;1496;51.404;7.232;2023-07-13T12:35:15;23.10;99.90
2973;DHT22;1496;51.404;7.232;2023-07-13T12:37:44;23.30;99.90
2973;DHT22;1496;51.404;7.232;2023-07-13T12:40:19;22.90;99.90
2973;DHT22;1496;51.404;7.232;2023-07-13T12:42:49;22.50;99.90
2973;DHT22;1496;51.404;7.232;2023-07-13T12:45:24;22.50;99.90
2973;DHT22;1496;51.404;7.232;2023-07-13T12:48:04;22.20;99.90
2973;DHT22;1496;51.404;7.232;2023-07-13T12:50:37;22.00;99.90
2973;DHT22;1496;51.404;7.232;2023-07-13T12:53:12;22.10;99.90
2973;DHT22;1496;51.404;7.232;2023-07-13T12:56:01;22.50;99.90
2973;DHT22;1496;51.404;7.232;2023-07-13T12:58:39;22.90;99.90
2973;DHT22;1496;51.404;7.232;2023-07-13T13:01:13;23.30;99.90
2973;DHT22;1496;51.404;7.232;2023-07-13T13:03:45;23.10;99.90
2973;DHT22;1496;51.404;7.232;2023-07-13T13:08:51;22.30;99.90
2973;DHT22;1496;51.404;7.232;2023-07-13T13:11:20;22.30;99.90
2973;DHT22;1496;51.404;7.232;2023-07-13T13:13:46;22.80;99.90
2973;DHT22;1496;51.404;7.232;2023-07-13T13:16:33;22.90;99.90
2973;DHT22;1496;51.404;7.232;2023-07-13T13:19:24;22.50;99.90
2973;DHT22;1496;51.404;7.232;2023-07-13T13:21:54;22.00;99.90
2973;DHT22;1496;51.404;7.232;2023-07-13T13:24:23;21.80;99.90
2973;DHT22;1496;51.404;7.232;2023-07-13T13:26:51;21.60;99.90
2973;DHT22;1496;51.404;7.232;2023-07-13T13:29:21;21.50;99.90
2973;DHT22;1496;51.404;7.232;2023-07-13T13:31:51;21.50;99.90
2973;DHT22;1496;51.404;7.232;2023-07-13T13:34:19;21.40;99.90
2973;DHT22;1496;51.404;7.232;2023-07-13T13:36:46;21.30;99.90
2973;DHT22;1496;51.404;7.232;2023-07-13T13:39:26;21.20;99.90
2973;DHT22;1496;51.404;7.232;2023-07-13T13:41:55;21.10;99.90
2973;DHT22;1496;51.404;7.232;2023-07-13T13:44:24;21.20;99.90
2973;DHT22;1496;51.404;7.232;2023-07-13T13:46:52;21.10;99.90
2973;DHT22;1496;51.404;7.232;2023-07-13T13:49:22;21.20;99.90
2973;DHT22;1496;51.404;7.232;2023-07-13T13:51:51;21.30;99.90
2973;DHT22;1496;51.404;7.232;2023-07-13T13:54:18;21.40;99.90
2973;DHT22;1496;51.404;7.232;2023-07-13T13:56:47;21.80;99.90
2973;DHT22;1496;51.404;7.232;2023-07-13T13:59:14;22.00;99.90
2973;DHT22;1496;51.404;7.232;2023-07-13T14:01:44;22.00;99.90
2973;DHT22;1496;51.404;7.232;2023-07-13T14:04:21;22.40;99.90
2973;DHT22;1496;51.404;7.232;2023-07-13T14:06:48;22.80;99.90
2973;DHT22;1496;51.404;7.232;2023-07-13T14:09:18;22.90;99.90
2973;DHT22;1496;51.404;7.232;2023-07-13T14:11:47;22.70;99.90
2973;DHT22;1496;51.404;7.232;2023-07-13T14:14:24;22.20;99.90
2973;DHT22;1496;51.404;7.232;2023-07-13T14:16:55;21.90;99.90
2973;DHT22;1496;51.404;7.232;2023-07-13T14:19:23;21.60;99.90
2973;DHT22;1496;51.404;7.232;2023-07-13T14:21:51;21.30;99.90
2973;DHT22;1496;51.404;7.232;2023-07-13T14:24:19;21.00;99.90
2973;DHT22;1496;51.404;7.232;2023-07-13T14:26:47;20.80;99.90
2973;DHT22;1496;51.404;7.232;2023-07-13T14:29:18;20.80;99.90
2973;DHT22;1496;51.404;7.232;2023-07-13T14:31:44;20.50;99.90
2973;DHT22;1496;51.404;7.232;2023-07-13T14:34:13;20.40;99.90
2973;DHT22;1496;51.404;7.232;2023-07-13T14:36:44;20.30;99.90
2973;DHT22;1496;51.404;7.232;2023-07-13T14:41:44;20.30;99.90
2973;DHT22;1496;51.404;7.232;2023-07-13T14:44:19;20.50;99.90
2973;DHT22;1496;51.404;7.232;2023-07-13T14:46:47;20.50;99.90
2973;DHT22;1496;51.404;7.232;2023-07-13T14:49:34;20.70;99.90
2973;DHT22;1496;51.404;7.232;2023-07-13T14:52:24;20.80;99.90
2973;DHT22;1496;51.404;7.232;2023-07-13T14:54:50;20.80;99.90
2973;DHT22;1496;51.404;7.232;2023-07-13T14:57:18;20.80;99.90
2973;DHT22;1496;51.404;7.232;2023-07-13T14:59:46;20.70;99.90
2973;DHT22;1496;51.404;7.232;2023-07-13T15:02:27;20.70;99.90
2973;DHT22;1496;51.404;7.232;2023-07-13T15:04:55;20.70;99.90
2973;DHT22;1496;51.404;7.232;2023-07-13T15:07:21;20.60;99.90
2973;DHT22;1496;51.404;7.232;2023-07-13T15:09:49;20.60;99.90
2973;DHT22;1496;51.404;7.232;2023-07-13T15:12:17;20.40;99.90
2973;DHT22;1496;51.404;7.232;2023-07-13T15:14:43;20.30;99.90
2973;DHT22;1496;51.404;7.232;2023-07-13T15:17:39;20.30;99.90
2973;DHT22;1496;51.404;7.232;2023-07-13T15:20:29;20.50;99.90
2973;DHT22;1496;51.404;7.232;2023-07-13T15:22:57;20.50;99.90
2973;DHT22;1496;51.404;7.232;2023-07-13T15:25:28;20.60;99.90
2973;DHT22;1496;51.404;7.232;2023-07-13T15:27:57;20.60;99.90
2973;DHT22;1496;51.404;7.232;2023-07-13T15:30:27;20.60;99.90
2973;DHT22;1496;51.404;7.232;2023-07-13T15:32:57;20.60;99.90
2973;DHT22;1496;51.404;7.232;2023-07-13T15:35:29;20.50;99.90
2973;DHT22;1496;51.404;7.232;2023-07-13T15:37:56;20.30;99.90
2973;DHT22;1496;51.404;7.232;2023-07-13T15:40:23;20.30;99.90
2973;DHT22;1496;51.404;7.232;2023-07-13T15:42:52;20.20;99.90
2973;DHT22;1496;51.404;7.232;2023-07-13T15:45:22;20.20;99.90
2973;DHT22;1496;51.404;7.232;2023-07-13T15:47:51;20.20;99.90
2973;DHT22;1496;51.404;7.232;2023-07-13T15:50:22;20.20;99.90
2973;DHT22;1496;51.404;7.232;2023-07-13T15:52:54;20.20;99.90
2973;DHT22;1496;51.404;7.232;2023-07-13T15:55:21;20.20;99.90
2973;DHT22;1496;51.404;7.232;2023-07-13T15:57:50;19.90;99.90
2973;DHT22;1496;51.404;7.232;2023-07-13T16:00:26;19.90;99.90
2973;DHT22;1496;51.404;7.232;2023-07-13T16:02:53;19.70;99.90
2973;DHT22;1496;51.404;7.232;2023-07-13T16:05:21;19.70;99.90
2973;DHT22;1496;51.404;7.232;2023-07-13T16:07:50;19.30;99.90
2973;DHT22;1496;51.404;7.232;2023-07-13T16:10:34;19.10;99.90
2973;DHT22;1496;51.404;7.232;2023-07-13T16:13:03;19.00;99.90
2973;DHT22;1496;51.404;7.232;2023-07-13T16:15:30;18.80;99.90
2973;DHT22;1496;51.404;7.232;2023-07-13T16:17:59;18.80;99.90
2973;DHT22;1496;51.404;7.232;2023-07-13T16:20:26;18.70;99.90
2973;DHT22;1496;51.404;7.232;2023-07-13T16:22:55;18.70;99.90
2973;DHT22;1496;51.404;7.232;2023-07-13T16:25:24;18.90;99.90
2973;DHT22;1496;51.404;7.232;2023-07-13T16:27:53;18.70;99.90
2973;DHT22;1496;51.404;7.232;2023-07-13T16:30:27;18.80;99.90
2973;DHT22;1496;51.404;7.232;2023-07-13T16:33:00;18.90;99.90
2973;DHT22;1496;51.404;7.232;2023-07-13T16:35:36;18.90;99.90
2973;DHT22;1496;51.404;7.232;2023-07-13T16:38:28;18.90;99.90
2973;DHT22;1496;51.404;7.232;2023-07-13T16:40:58;19.00;99.90
2973;DHT22;1496;51.404;7.232;2023-07-13T16:43:25;19.00;99.90
2973;DHT22;1496;51.404;7.232;2023-07-13T16:45:53;19.10;99.90
2973;DHT22;1496;51.404;7.232;2023-07-13T16:48:23;19.30;99.90
2973;DHT22;1496;51.404;7.232;2023-07-13T16:50:55;19.20;99.90
2973;DHT22;1496;51.404;7.232;2023-07-13T16:53:24;19.20;99.90
2973;DHT22;1496;51.404;7.232;2023-07-13T16:55:51;19.20;99.90
2973;DHT22;1496;51.404;7.232;2023-07-13T16:58:26;19.10;99.90
2973;DHT22;1496;51.404;7.232;2023-07-13T17:00:59;19.10;99.90
2973;DHT22;1496;51.404;7.232;2023-07-13T17:03:27;19.30;99.90